Time;durP1;ratioP1;P1;durP2;ratioP2;P2;SDS_P1;SDS_P2;PMS_P1;PMS_P2;Temp;Humidity;BMP_temperature;BMP_pressure;BME280_temperature;BME280_humidity;BME280_pressure;Samples;Min_cycle;Max_cycle;Signal;HPM_P1;HPM_P2
2023/01/23 06:38:44;;;;;;;14.68;6.18;;;;;;;;;;6230181;22;20095;-76
2023/01/23 06:41:13;;;;;;;14.55;6.47;;;;;;;;;;6123462;23;20028;-76
2023/01/23 06:43:40;;;;;;;13.77;6.63;;;;;;;;;;6099424;23;20016;-74
2023/01/23 06:46:07;;;;;;;16.77;6.85;;;;;;;;;;6078018;23;20041;-75
2023/01/23 06:48:34;;;;;;;15.45;6.60;;;;;;;;;;6092732;23;20028;-77
2023/01/23 06:51:01;;;;;;;19.33;7.40;;;;;;;;;;6117394;23;20017;-76
2023/01/23 06:53:30;;;;;;;14.07;6.85;;;;;;;;;;6026298;23;20054;-75
2023/01/23 06:56:01;;;;;;;15.63;6.70;;;;;;;;;;6142587;23;20020;-77
2023/01/23 06:58:29;;;;;;;14.10;6.53;;;;;;;;;;6116212;23;20024;-77
2023/01/23 07:00:56;;;;;;;13.70;5.95;;;;;;;;;;6012672;23;20030;-76
2023/01/23 07:08:35;;;;;;;19.00;7.38;;;;;;;;;;5062237;27;20467;-78
2023/01/23 07:11:02;;;;;;;17.67;7.28;;;;;;;;;;5022981;28;20053;-73
2023/01/23 07:13:31;;;;;;;15.18;6.97;;;;;;;;;;4991862;28;20085;-73
2023/01/23 07:15:58;;;;;;;15.63;7.03;;;;;;;;;;4977871;28;20073;-71
2023/01/23 07:18:27;;;;;;;14.88;7.20;;;;;;;;;;5005059;28;20049;-74
2023/01/23 07:21:15;;;;;;;17.80;7.65;;;;;;;;;;5002878;28;20069;-76
2023/01/23 07:28:57;;;;;;;16.67;6.90;;;;;;;;;;5026428;28;20443;-70
2023/01/23 07:31:24;;;;;;;15.57;7.10;;;;;;;;;;4967523;28;20064;-72
2023/01/23 07:33:51;;;;;;;15.32;7.57;;;;;;;;;;4981039;28;20069;-72
2023/01/23 07:36:18;;;;;;;17.00;7.05;;;;;;;;;;4987979;28;20054;-74
2023/01/23 07:38:45;;;;;;;14.93;6.43;;;;;;;;;;4962052;28;20049;-74
2023/01/23 07:41:16;;;;;;;17.55;7.45;;;;;;;;;;4977686;28;20061;-75
2023/01/23 07:43:43;;;;;;;16.88;6.70;;;;;;;;;;4951104;28;20058;-73
2023/01/23 07:46:11;;;;;;;15.45;6.72;;;;;;;;;;4976521;28;20046;-74
2023/01/23 07:48:38;;;;;;;14.88;6.57;;;;;;;;;;4906483;28;20079;-73
2023/01/23 07:51:05;;;;;;;13.68;6.63;;;;;;;;;;4913294;28;20342;-75
2023/01/23 07:53:34;;;;;;;16.73;7.05;;;;;;;;;;4881136;28;20061;-73
2023/01/23 07:56:04;;;;;;;18.48;7.43;;;;;;;;;;4969162;28;20073;-73
2023/01/23 07:58:31;;;;;;;15.07;6.63;;;;;;;;;;4931950;28;20051;-75
2023/01/23 08:00:58;;;;;;;16.90;7.22;;;;;;;;;;4887160;28;20055;-70
2023/01/23 08:11:38;;;;;;;15.75;7.28;;;;;;;;;;5102892;27;20419;-72
2023/01/23 08:14:04;;;;;;;14.75;7.22;;;;;;;;;;4971501;28;20061;-74
2023/01/23 08:16:31;;;;;;;19.92;7.35;;;;;;;;;;4990050;28;20050;-70
2023/01/23 08:18:58;;;;;;;17.10;7.28;;;;;;;;;;4978913;28;20044;-73
2023/01/23 08:21:27;;;;;;;16.17;7.03;;;;;;;;;;4987416;28;20053;-77
2023/01/23 08:23:54;;;;;;;17.20;6.70;;;;;;;;;;4966494;28;20162;-73
2023/01/23 08:26:21;;;;;;;20.67;7.80;;;;;;;;;;4990749;28;20047;-74
2023/01/23 08:28:51;;;;;;;18.10;7.07;;;;;;;;;;4960333;28;20058;-70
2023/01/23 08:31:18;;;;;;;15.45;6.75;;;;;;;;;;4913536;28;20057;-71
2023/01/23 08:33:47;;;;;;;17.33;7.75;;;;;;;;;;4935026;28;20053;-71
2023/01/23 08:36:18;;;;;;;15.70;7.00;;;;;;;;;;4915942;28;20076;-73
2023/01/23 08:54:26;;;;;;;16.98;7.97;;;;;;;;;;5004062;27;20445;-72
2023/01/23 08:56:56;;;;;;;14.50;6.90;;;;;;;;;;4960756;28;20157;-73
2023/01/23 08:59:23;;;;;;;18.45;7.32;;;;;;;;;;5000461;28;20057;-74
2023/01/23 09:01:50;;;;;;;16.60;7.68;;;;;;;;;;4962490;28;20080;-70
2023/01/23 09:04:17;;;;;;;19.08;7.55;;;;;;;;;;4965897;28;20053;-75
2023/01/23 09:06:44;;;;;;;14.90;7.40;;;;;;;;;;4913241;28;20059;-75
2023/01/23 09:09:11;;;;;;;16.30;7.43;;;;;;;;;;4903240;28;20050;-70
2023/01/23 09:11:45;;;;;;;19.50;7.65;;;;;;;;;;4941231;28;20142;-74
2023/01/23 09:14:12;;;;;;;18.20;7.28;;;;;;;;;;4857062;28;20070;-72
2023/01/23 09:16:40;;;;;;;18.10;7.88;;;;;;;;;;4952063;28;20051;-73
2023/01/23 09:19:09;;;;;;;19.83;8.07;;;;;;;;;;4958521;28;20071;-74
2023/01/23 09:26:29;;;;;;;18.67;7.38;;;;;;;;;;4931980;28;20046;-78
2023/01/23 09:28:57;;;;;;;17.75;7.53;;;;;;;;;;4926160;28;20050;-73
2023/01/23 09:36:41;;;;;;;19.95;7.70;;;;;;;;;;5016673;28;20433;-74
2023/01/23 09:39:08;;;;;;;17.70;7.90;;;;;;;;;;4962357;28;20180;-75
2023/01/23 09:41:35;;;;;;;15.65;7.25;;;;;;;;;;4941766;28;20042;-78
2023/01/23 09:49:02;;;;;;;20.55;7.10;;;;;;;;;;4815199;29;20049;-73
2023/01/23 09:51:33;;;;;;;13.75;6.95;;;;;;;;;;4871294;29;20052;-73
2023/01/23 09:54:04;;;;;;;16.38;6.85;;;;;;;;;;4879847;28;20171;-72
2023/01/23 09:56:34;;;;;;;16.80;7.10;;;;;;;;;;4905512;28;20187;-73
2023/01/23 09:59:04;;;;;;;15.52;6.88;;;;;;;;;;4944744;28;20057;-76
2023/01/23 10:01:33;;;;;;;18.77;7.68;;;;;;;;;;4893730;28;20407;-71
2023/01/23 10:07:09;;;;;;;17.00;7.38;;;;;;;;;;5005026;27;20516;-77
2023/01/23 10:09:43;;;;;;;17.58;7.68;;;;;;;;;;4941985;28;20054;-75
2023/01/23 10:12:26;;;;;;;15.18;7.20;;;;;;;;;;4956684;28;20054;-73
2023/01/23 10:15:05;;;;;;;16.98;6.68;;;;;;;;;;4861980;28;20055;-74
2023/01/23 10:17:37;;;;;;;15.82;6.45;;;;;;;;;;4936738;28;20066;-73
2023/01/23 10:20:19;;;;;;;14.07;6.57;;;;;;;;;;4969962;28;20060;-72
2023/01/23 10:22:58;;;;;;;15.98;6.90;;;;;;;;;;4962105;28;20059;-74
2023/01/23 10:28:17;;;;;;;14.98;6.25;;;;;;;;;;5013316;27;20470;-68
2023/01/23 10:30:49;;;;;;;15.90;7.22;;;;;;;;;;4973899;28;20064;-70
2023/01/23 10:33:17;;;;;;;14.45;6.95;;;;;;;;;;4999730;28;20097;-73
2023/01/23 10:35:49;;;;;;;15.23;6.50;;;;;;;;;;4941895;28;20053;-71
2023/01/23 10:38:23;;;;;;;13.63;6.43;;;;;;;;;;4968804;28;20058;-72
2023/01/23 10:43:39;;;;;;;19.52;8.23;;;;;;;;;;4997624;28;20066;-71
2023/01/23 10:46:11;;;;;;;18.60;6.97;;;;;;;;;;4956705;28;20050;-73
2023/01/23 10:48:44;;;;;;;23.17;7.28;;;;;;;;;;4977820;28;20121;-70
2023/01/23 10:51:30;;;;;;;16.70;6.82;;;;;;;;;;4977454;28;20395;-73
2023/01/23 10:54:03;;;;;;;15.27;6.20;;;;;;;;;;4969460;28;20070;-71
2023/01/23 10:56:42;;;;;;;15.05;7.03;;;;;;;;;;4915269;28;20081;-69
2023/01/23 10:59:19;;;;;;;14.10;6.50;;;;;;;;;;4971753;28;20124;-74
2023/01/23 11:02:06;;;;;;;18.17;6.60;;;;;;;;;;4929388;28;20066;-73
2023/01/23 11:35:45;;;;;;;18.42;6.60;;;;;;;;;;5177370;22;18647269;-72
2023/01/23 11:39:16;;;;;;;;;;;;;;;;;;;;;
2023/01/23 11:58:04;;;;;;;12.43;5.20;;;;;;;;;;5699251;22;12021658;-70
2023/01/23 12:20:39;;;;;;;15.32;6.95;;;;;;;;;;6391205;22;20021;-69
2023/01/23 12:44:47;;;;;;;12.63;5.78;;;;;;;;;;6139707;22;1783354;-70
2023/01/23 12:47:21;;;;;;;15.52;6.60;;;;;;;;;;5951362;23;20283;-70
2023/01/23 12:49:50;;;;;;;14.30;6.03;;;;;;;;;;6033964;23;20035;-70
2023/01/23 12:52:22;;;;;;;15.38;6.75;;;;;;;;;;6054320;23;20037;-70
2023/01/23 12:54:51;;;;;;;15.05;5.75;;;;;;;;;;6015921;23;20141;-71
2023/01/23 13:00:07;;;;;;;17.02;6.28;;;;;;;;;;6028710;23;20022;-69
2023/01/23 13:41:52;;;;;;;12.55;5.35;;;;;;;;;;5898606;23;20028;-72
2023/01/23 13:45:01;;;;;;;14.40;6.00;;;;;;;;;;5944026;23;20105;-70
2023/01/23 14:53:13;;;;;;;12.40;4.95;;;;;;;;;;6063856;22;4349017;-67
2023/01/23 14:55:53;;;;;;;14.27;6.43;;;;;;;;;;6149821;23;20021;-68
2023/01/23 14:58:59;;;;;;;14.32;5.93;;;;;;;;;;6089387;23;20125;-69
2023/01/23 15:02:01;;;;;;;15.07;5.95;;;;;;;;;;6077886;23;20029;-67
2023/01/23 15:04:32;;;;;;;12.32;5.43;;;;;;;;;;6048756;23;20021;-67
2023/01/23 15:09:45;;;;;;;14.10;6.18;;;;;;;;;;5937609;23;20030;-67
2023/01/23 15:12:15;;;;;;;15.35;6.05;;;;;;;;;;5991513;23;20030;-67
2023/01/23 15:14:45;;;;;;;14.88;5.70;;;;;;;;;;6067954;23;20283;-67
2023/01/23 15:17:26;;;;;;;13.70;6.28;;;;;;;;;;5990072;23;20038;-68
2023/01/23 15:20:14;;;;;;;14.02;6.20;;;;;;;;;;6113055;23;20029;-67
2023/01/23 15:22:40;;;;;;;14.48;6.38;;;;;;;;;;6104801;23;20025;-67
2023/01/23 15:25:34;;;;;;;15.20;6.38;;;;;;;;;;6104045;23;20025;-67
2023/01/23 15:28:02;;;;;;;14.88;6.25;;;;;;;;;;6080889;23;20028;-66
2023/01/23 15:30:37;;;;;;;14.40;6.45;;;;;;;;;;6147937;23;20025;-68
2023/01/23 15:33:22;;;;;;;17.15;7.10;;;;;;;;;;6160215;23;20017;-68
2023/01/23 15:35:48;;;;;;;15.55;6.35;;;;;;;;;;6164210;23;20031;-67
2023/01/23 15:38:16;;;;;;;14.82;6.28;;;;;;;;;;6165590;23;20031;-67
2023/01/23 15:40:51;;;;;;;14.02;6.63;;;;;;;;;;6170162;23;20031;-67
2023/01/23 15:43:19;;;;;;;16.33;6.45;;;;;;;;;;6139925;23;21144;-67
2023/01/23 15:45:46;;;;;;;16.02;6.32;;;;;;;;;;6169782;23;20031;-68
2023/01/23 15:48:12;;;;;;;15.57;6.13;;;;;;;;;;6129255;23;20017;-67
2023/01/23 15:50:39;;;;;;;14.95;6.10;;;;;;;;;;6219074;22;20059;-69
2023/01/23 15:53:10;;;;;;;13.77;6.28;;;;;;;;;;6105011;23;20148;-67
2023/01/23 15:55:39;;;;;;;13.55;6.05;;;;;;;;;;6124766;23;20036;-67
2023/01/23 15:58:05;;;;;;;13.68;6.15;;;;;;;;;;6147340;23;20020;-67
2023/01/23 16:00:34;;;;;;;14.60;6.45;;;;;;;;;;6152090;23;20094;-67
2023/01/23 16:03:00;;;;;;;13.02;6.07;;;;;;;;;;6141408;23;20028;-69
2023/01/23 16:05:28;;;;;;;14.07;6.00;;;;;;;;;;6160647;23;20088;-67
2023/01/23 16:07:57;;;;;;;16.05;6.05;;;;;;;;;;6160353;23;20021;-67
2023/01/23 16:10:26;;;;;;;15.73;6.45;;;;;;;;;;6139870;23;20071;-69
2023/01/23 16:12:55;;;;;;;14.20;6.15;;;;;;;;;;6133426;23;20036;-68
2023/01/23 16:15:23;;;;;;;13.68;5.82;;;;;;;;;;6136594;23;20115;-69
2023/01/23 16:17:51;;;;;;;11.77;5.25;;;;;;;;;;6133045;23;20100;-68
2023/01/23 16:20:19;;;;;;;15.90;6.65;;;;;;;;;;6151033;23;20020;-67
2023/01/23 16:22:46;;;;;;;11.95;5.75;;;;;;;;;;6165257;22;20051;-67
2023/01/23 16:25:18;;;;;;;16.88;6.43;;;;;;;;;;6206173;22;20116;-67
2023/01/23 16:27:47;;;;;;;13.13;5.75;;;;;;;;;;6132930;23;20032;-68
2023/01/23 16:30:13;;;;;;;;;;;;;;;;;;6138663;23;20024;-68
2023/01/23 16:32:40;;;;;;;15.88;6.43;;;;;;;;;;6109542;23;19920;-68
2023/01/23 16:35:08;;;;;;;12.45;5.47;;;;;;;;;;6154953;23;20024;-68
2023/01/23 16:37:39;;;;;;;12.65;5.82;;;;;;;;;;6119310;23;20025;-68
2023/01/23 16:40:06;;;;;;;12.57;5.60;;;;;;;;;;6164835;23;20029;-68
2023/01/23 16:42:38;;;;;;;13.43;6.18;;;;;;;;;;6137873;23;20029;-68
2023/01/23 16:45:12;;;;;;;16.85;5.93;;;;;;;;;;6139252;23;20048;-68
2023/01/23 16:47:39;;;;;;;13.80;5.55;;;;;;;;;;6137862;23;20048;-68
2023/01/23 16:50:10;;;;;;;13.60;6.18;;;;;;;;;;6192009;23;20115;-68
2023/01/23 16:52:38;;;;;;;14.27;6.10;;;;;;;;;;6216579;23;20107;-68
2023/01/23 16:55:12;;;;;;;15.20;5.80;;;;;;;;;;6163293;23;20020;-67
2023/01/23 16:57:39;;;;;;;14.63;6.00;;;;;;;;;;6131388;23;20108;-67
2023/01/23 17:00:07;;;;;;;15.13;5.82;;;;;;;;;;6116693;23;20042;-68
2023/01/23 17:02:33;;;;;;;13.95;5.97;;;;;;;;;;6130524;23;20090;-67
2023/01/23 17:05:00;;;;;;;13.38;5.93;;;;;;;;;;6128725;23;20104;-67
2023/01/23 17:07:26;;;;;;;14.35;6.25;;;;;;;;;;6128141;23;20028;-69
2023/01/23 17:09:54;;;;;;;15.20;6.22;;;;;;;;;;6155848;23;20024;-67
2023/01/23 17:12:22;;;;;;;11.40;5.50;;;;;;;;;;6130972;23;20176;-68
2023/01/23 17:14:51;;;;;;;12.35;5.68;;;;;;;;;;6141562;23;20271;-68
2023/01/23 17:17:21;;;;;;;14.40;6.00;;;;;;;;;;6117891;23;20032;-68
2023/01/23 17:19:48;;;;;;;13.15;5.72;;;;;;;;;;6166160;23;20078;-68
2023/01/23 17:22:18;;;;;;;15.23;6.35;;;;;;;;;;6163121;23;20021;-68
2023/01/23 17:24:45;;;;;;;12.05;5.65;;;;;;;;;;6164719;23;20044;-67
2023/01/23 17:27:13;;;;;;;13.88;5.65;;;;;;;;;;6147060;23;20035;-70
2023/01/23 17:29:40;;;;;;;15.15;6.38;;;;;;;;;;6128483;23;20031;-69
2023/01/23 17:32:06;;;;;;;11.98;5.75;;;;;;;;;;6145404;23;20036;-68
2023/01/23 17:34:35;;;;;;;13.65;6.28;;;;;;;;;;6179833;23;20095;-69
2023/01/23 17:37:02;;;;;;;12.93;6.13;;;;;;;;;;6143301;22;20024;-69
2023/01/23 17:39:28;;;;;;;13.10;5.90;;;;;;;;;;6159411;23;20025;-68
2023/01/23 17:41:55;;;;;;;14.73;5.57;;;;;;;;;;6166161;23;20024;-67
2023/01/23 17:44:24;;;;;;;14.90;5.93;;;;;;;;;;6152883;23;20028;-69
2023/01/23 17:46:53;;;;;;;14.27;6.03;;;;;;;;;;6108079;23;20024;-68
2023/01/23 17:49:26;;;;;;;12.77;5.72;;;;;;;;;;6166231;23;20092;-67
2023/01/23 17:51:53;;;;;;;13.75;5.95;;;;;;;;;;6154285;23;20100;-67
2023/01/23 17:54:20;;;;;;;14.55;5.95;;;;;;;;;;6156280;23;20025;-67
2023/01/23 17:56:46;;;;;;;12.80;5.43;;;;;;;;;;6116825;22;20020;-68
2023/01/23 17:59:13;;;;;;;12.52;5.30;;;;;;;;;;6148143;22;20038;-68
2023/01/23 18:01:41;;;;;;;14.60;5.90;;;;;;;;;;6193105;23;20017;-68
2023/01/23 18:04:11;;;;;;;12.30;5.30;;;;;;;;;;6164178;23;20027;-69
2023/01/23 18:06:38;;;;;;;14.40;5.90;;;;;;;;;;6165851;23;20030;-68
2023/01/23 18:09:05;;;;;;;12.27;6.00;;;;;;;;;;6119793;23;20032;-68
2023/01/23 18:11:32;;;;;;;12.30;5.60;;;;;;;;;;6135096;23;20039;-67
2023/01/23 18:14:14;;;;;;;10.70;5.40;;;;;;;;;;6218160;23;20024;-68
2023/01/23 18:16:43;;;;;;;12.82;5.90;;;;;;;;;;6211717;23;20036;-68
2023/01/23 18:19:15;;;;;;;13.25;6.32;;;;;;;;;;6189600;22;20050;-68
2023/01/23 18:21:41;;;;;;;11.32;5.30;;;;;;;;;;6183180;23;20023;-68
2023/01/23 18:24:13;;;;;;;11.32;5.22;;;;;;;;;;6197649;23;20043;-67
2023/01/23 18:26:45;;;;;;;12.35;6.05;;;;;;;;;;6156290;23;20104;-67
2023/01/23 18:29:17;;;;;;;14.55;5.57;;;;;;;;;;6199887;22;20043;-68
2023/01/23 18:31:49;;;;;;;12.60;5.88;;;;;;;;;;6154519;23;20031;-69
2023/01/23 18:34:19;;;;;;;13.20;5.90;;;;;;;;;;6117219;23;20032;-68
2023/01/23 18:36:57;;;;;;;16.45;5.75;;;;;;;;;;6168453;23;20111;-68
2023/01/23 18:39:31;;;;;;;17.15;5.93;;;;;;;;;;6158087;23;20031;-67
2023/01/23 18:42:02;;;;;;;13.32;5.93;;;;;;;;;;6157351;23;20048;-67
2023/01/23 18:44:29;;;;;;;13.63;5.80;;;;;;;;;;6168153;23;20027;-68
2023/01/23 18:47:04;;;;;;;13.60;6.20;;;;;;;;;;6168180;22;20024;-68
2023/01/23 18:49:31;;;;;;;13.98;5.68;;;;;;;;;;6152757;23;20028;-68
2023/01/23 18:52:01;;;;;;;14.05;6.00;;;;;;;;;;6166119;23;20040;-68
2023/01/23 18:54:33;;;;;;;12.10;5.45;;;;;;;;;;6171167;23;20084;-67
2023/01/23 18:57:06;;;;;;;12.95;6.22;;;;;;;;;;6098408;23;20052;-69
2023/01/23 18:59:38;;;;;;;12.25;5.60;;;;;;;;;;6055894;23;22051;-69
2023/01/23 19:02:12;;;;;;;12.25;5.55;;;;;;;;;;6161515;23;20095;-69
2023/01/23 19:04:43;;;;;;;13.13;6.13;;;;;;;;;;6132165;23;20120;-68
2023/01/23 19:07:14;;;;;;;12.32;6.00;;;;;;;;;;6128022;23;20029;-69
2023/01/23 19:09:45;;;;;;;13.80;6.53;;;;;;;;;;6169844;23;20107;-68
2023/01/23 19:12:18;;;;;;;15.75;6.57;;;;;;;;;;6163810;23;20025;-67
2023/01/23 19:14:50;;;;;;;12.00;5.35;;;;;;;;;;6136756;23;20028;-68
2023/01/23 19:17:23;;;;;;;14.43;6.18;;;;;;;;;;6144574;23;20124;-68
2023/01/23 19:19:58;;;;;;;15.02;7.22;;;;;;;;;;6169172;23;20029;-67
2023/01/23 19:22:25;;;;;;;12.65;5.97;;;;;;;;;;6128611;23;20044;-68
2023/01/23 19:24:55;;;;;;;15.30;6.18;;;;;;;;;;6206756;22;20039;-68
2023/01/23 19:27:23;;;;;;;14.48;6.70;;;;;;;;;;6155445;22;20087;-68
2023/01/23 19:29:50;;;;;;;16.67;6.68;;;;;;;;;;6131673;23;20071;-68
2023/01/23 19:32:16;;;;;;;18.10;6.15;;;;;;;;;;6133112;23;20021;-68
2023/01/23 19:34:44;;;;;;;13.75;5.88;;;;;;;;;;6135776;23;20036;-67
2023/01/23 19:37:12;;;;;;;15.93;6.55;;;;;;;;;;6156034;23;20174;-67
2023/01/23 19:39:39;;;;;;;14.13;6.10;;;;;;;;;;6095849;23;20028;-68
2023/01/23 19:42:05;;;;;;;14.40;6.60;;;;;;;;;;6141737;23;20307;-68
2023/01/23 19:44:32;;;;;;;12.13;5.88;;;;;;;;;;6139465;23;20049;-68
2023/01/23 19:46:59;;;;;;;15.23;6.55;;;;;;;;;;6121363;23;20025;-68
2023/01/23 19:49:25;;;;;;;12.93;6.45;;;;;;;;;;6161303;23;20036;-68
2023/01/23 19:52:03;;;;;;;;;;;;;;;;;;;;;
2023/01/23 19:57:28;;;;;;;15.35;6.75;;;;;;;;;;6006701;23;20112;-68
2023/01/23 20:12:55;;;;;;;;;;;;;;;;;;;;;
2023/01/23 20:15:36;;;;;;;15.60;6.30;;;;;;;;;;4947190;28;20077;-68
2023/01/23 20:26:01;;;;;;;15.15;6.35;;;;;;;;;;4930918;27;20433;-66
2023/01/23 20:30:56;;;;;;;14.98;6.22;;;;;;;;;;4832860;29;20079;-68
2023/01/23 20:33:37;;;;;;;15.73;6.57;;;;;;;;;;4867670;29;20064;-67
2023/01/23 20:36:09;;;;;;;15.63;7.13;;;;;;;;;;4873292;29;20059;-66
2023/01/23 20:41:06;;;;;;;17.33;7.32;;;;;;;;;;4825251;28;20037;-67
2023/01/23 20:43:34;;;;;;;15.50;6.57;;;;;;;;;;4973684;28;20065;-67
2023/01/23 20:46:01;;;;;;;13.82;6.25;;;;;;;;;;4965124;28;20059;-67
2023/01/23 20:48:28;;;;;;;14.68;6.80;;;;;;;;;;4994124;28;20054;-66
2023/01/23 20:50:57;;;;;;;15.80;6.60;;;;;;;;;;4982730;28;20141;-68
2023/01/23 20:53:30;;;;;;;13.50;6.47;;;;;;;;;;5001243;28;20132;-66
2023/01/23 20:56:00;;;;;;;11.50;5.65;;;;;;;;;;4962819;28;20049;-67
2023/01/23 21:12:07;;;;;;;15.70;6.88;;;;;;;;;;4645209;27;9485094;-69
2023/01/23 21:14:43;;;;;;;14.77;6.60;;;;;;;;;;4883316;28;20059;-68
2023/01/23 21:17:13;;;;;;;15.18;6.72;;;;;;;;;;4873135;28;20054;-69
2023/01/23 21:22:11;;;;;;;15.80;7.57;;;;;;;;;;4887467;28;20411;-69
2023/01/23 21:27:15;;;;;;;13.82;6.70;;;;;;;;;;4914151;28;20496;-69
2023/01/23 21:35:12;;;;;;;17.10;7.28;;;;;;;;;;5001890;28;20465;-68
2023/01/23 21:37:45;;;;;;;14.95;7.20;;;;;;;;;;4972588;28;20104;-67
2023/01/23 21:40:12;;;;;;;17.20;6.93;;;;;;;;;;4886630;28;20138;-66
2023/01/23 21:48:34;;;;;;;13.52;6.50;;;;;;;;;;4875604;28;20067;-69
2023/01/23 21:56:36;;;;;;;16.70;7.18;;;;;;;;;;4850255;29;20056;-68
2023/01/23 21:59:03;;;;;;;22.08;6.60;;;;;;;;;;4825666;29;20060;-68
2023/01/23 22:01:34;;;;;;;14.93;6.32;;;;;;;;;;4880656;29;20047;-68
2023/01/23 22:04:01;;;;;;;15.70;7.43;;;;;;;;;;4913134;28;20048;-68
2023/01/23 22:06:29;;;;;;;16.17;7.50;;;;;;;;;;4939674;28;20062;-69
2023/01/23 22:08:56;;;;;;;13.82;6.57;;;;;;;;;;4979503;28;20059;-70
2023/01/23 22:11:22;;;;;;;15.38;6.78;;;;;;;;;;5020253;28;20144;-69
2023/01/23 22:13:59;;;;;;;14.05;6.45;;;;;;;;;;4994296;28;20077;-68
2023/01/23 22:16:26;;;;;;;14.68;6.50;;;;;;;;;;4994297;28;20116;-69
2023/01/23 22:18:53;;;;;;;19.42;7.57;;;;;;;;;;4965606;28;20058;-69
2023/01/23 22:21:22;;;;;;;17.30;7.40;;;;;;;;;;4948488;28;20053;-68
2023/01/23 22:23:49;;;;;;;17.13;7.38;;;;;;;;;;4992218;28;20068;-69
2023/01/23 22:26:23;;;;;;;17.33;7.00;;;;;;;;;;4972905;28;20049;-69
2023/01/23 22:28:55;;;;;;;17.17;7.05;;;;;;;;;;4946298;28;20054;-69
2023/01/23 22:31:24;;;;;;;16.33;7.13;;;;;;;;;;4925228;28;20052;-68
2023/01/23 22:34:17;;;;;;;15.70;6.47;;;;;;;;;;4982418;28;20058;-70
2023/01/23 22:36:58;;;;;;;16.00;6.95;;;;;;;;;;4937046;28;20054;-70
2023/01/23 22:39:34;;;;;;;17.83;7.07;;;;;;;;;;4953581;28;20061;-70
2023/01/23 22:42:24;;;;;;;14.25;6.30;;;;;;;;;;4943098;28;20133;-69
2023/01/23 22:45:18;;;;;;;15.77;6.28;;;;;;;;;;4909226;28;20058;-69
2023/01/23 22:47:51;;;;;;;18.50;7.47;;;;;;;;;;4921526;28;20050;-68
2023/01/23 22:50:42;;;;;;;16.42;7.70;;;;;;;;;;4900196;28;20055;-69
2023/01/23 22:53:13;;;;;;;16.92;7.45;;;;;;;;;;4881143;29;20070;-67
2023/01/23 22:55:40;;;;;;;14.52;6.63;;;;;;;;;;4828839;29;20148;-68
2023/01/23 22:58:06;;;;;;;18.42;6.47;;;;;;;;;;4886829;29;20055;-68
2023/01/23 23:00:35;;;;;;;16.75;6.35;;;;;;;;;;4889518;28;20051;-69
2023/01/23 23:03:08;;;;;;;15.70;7.05;;;;;;;;;;4881051;28;20047;-70
2023/01/23 23:05:36;;;;;;;13.23;6.30;;;;;;;;;;4961488;28;20054;-68
2023/01/23 23:08:15;;;;;;;15.35;6.30;;;;;;;;;;4941803;28;20054;-71
2023/01/23 23:10:48;;;;;;;;;;;;;;;;;;4946352;28;20042;-69
2023/01/23 23:13:27;;;;;;;13.10;6.03;;;;;;;;;;4994991;28;19953;-69
2023/01/23 23:15:57;;;;;;;16.67;7.22;;;;;;;;;;4954908;28;20118;-68
2023/01/23 23:18:25;;;;;;;13.98;6.88;;;;;;;;;;4978796;28;20050;-68
2023/01/23 23:20:54;;;;;;;17.02;6.55;;;;;;;;;;4961044;28;20060;-69
2023/01/23 23:23:26;;;;;;;16.15;6.65;;;;;;;;;;4960409;28;20068;-68
2023/01/23 23:25:55;;;;;;;16.70;6.38;;;;;;;;;;4961251;28;20053;-69
2023/01/23 23:31:32;;;;;;;16.00;7.63;;;;;;;;;;4874464;28;20170;-69
2023/01/23 23:34:00;;;;;;;14.18;6.38;;;;;;;;;;4928547;28;20051;-69
2023/01/23 23:36:27;;;;;;;17.98;6.70;;;;;;;;;;4961330;28;20054;-68
2023/01/23 23:38:53;;;;;;;14.07;6.80;;;;;;;;;;4955346;28;20046;-69
2023/01/23 23:41:20;;;;;;;16.38;6.78;;;;;;;;;;4972770;28;20069;-70
2023/01/23 23:43:47;;;;;;;13.63;6.25;;;;;;;;;;4961801;28;20054;-68
2023/01/23 23:46:13;;;;;;;18.25;7.03;;;;;;;;;;4955438;28;20055;-68
2023/01/23 23:48:42;;;;;;;13.32;6.05;;;;;;;;;;4999196;28;20532;-69
2023/01/23 23:51:12;;;;;;;16.38;6.90;;;;;;;;;;4949530;28;20046;-68
2023/01/23 23:53:38;;;;;;;14.00;6.68;;;;;;;;;;4994061;28;20145;-68
2023/01/23 23:56:05;;;;;;;15.07;6.50;;;;;;;;;;4957604;28;20062;-68
2023/01/23 23:58:32;;;;;;;15.73;6.90;;;;;;;;;;4968141;28;20058;-68
